Time;durP1;ratioP1;P1;durP2;ratioP2;P2;SDS_P1;SDS_P2;PMS_P1;PMS_P2;Temp;Humidity;BMP_temperature;BMP_pressure;BME280_temperature;BME280_humidity;BME280_pressure;Samples;Min_cycle;Max_cycle;Signal;HPM_P1;HPM_P2
2021/09/12 00:00:30;;;;;;;11.30;0.90;;;17.70;99.90;;;;;;5077287;28;20493;-89
2021/09/12 00:02:56;;;;;;;4.15;0.30;;;18.20;99.90;;;;;;5094696;28;20115;-88
2021/09/12 00:05:24;;;;;;;11.93;1.13;;;17.00;99.90;;;;;;5064756;28;20074;-89
2021/09/12 00:07:49;;;;;;;8.57;1.25;;;18.50;99.90;;;;;;5057921;28;20024;-88
2021/09/12 00:10:15;;;;;;;9.13;1.63;;;18.10;99.90;;;;;;5095292;22;20047;-76
2021/09/12 00:12:41;;;;;;;1.92;0.63;;;21.10;99.90;;;;;;5037878;28;20509;-77
2021/09/12 00:15:09;;;;;;;3.90;0.85;;;19.50;99.90;;;;;;5070864;22;20032;-76
2021/09/12 00:17:34;;;;;;;4.50;0.30;;;17.60;99.90;;;;;;5075680;28;20060;-76
2021/09/12 00:20:00;;;;;;;5.75;0.75;;;17.60;99.90;;;;;;5074952;28;20021;-76
2021/09/12 00:22:26;;;;;;;4.53;0.65;;;17.60;99.90;;;;;;5074958;28;20020;-76
2021/09/12 00:24:51;;;;;;;7.00;1.25;;;17.60;99.90;;;;;;5068006;28;20029;-77
2021/09/12 00:27:17;;;;;;;5.75;0.73;;;17.60;99.90;;;;;;5054179;28;20029;-76
2021/09/12 00:29:43;;;;;;;9.30;1.02;;;17.50;99.90;;;;;;5054159;28;20060;-77
2021/09/12 00:32:09;;;;;;;4.32;0.40;;;17.60;99.90;;;;;;5036213;28;20490;-76
2021/09/12 00:34:34;;;;;;;4.10;0.40;;;17.50;99.90;;;;;;5057250;28;20029;-76
2021/09/12 00:37:00;;;;;;;4.88;0.47;;;17.60;99.90;;;;;;5073669;28;20393;-77
2021/09/12 00:39:25;;;;;;;7.45;0.88;;;17.50;99.90;;;;;;5074871;28;20373;-78
2021/09/12 00:41:51;;;;;;;7.57;0.65;;;17.50;99.90;;;;;;5057692;28;20367;-78
2021/09/12 00:44:16;;;;;;;5.28;0.47;;;17.40;99.90;;;;;;5076160;28;20432;-78
2021/09/12 00:46:44;;;;;;;3.95;0.68;;;17.40;99.90;;;;;;5076826;28;20021;-78
2021/09/12 00:49:11;;;;;;;7.60;0.77;;;17.30;99.90;;;;;;5076010;28;20035;-78
2021/09/12 00:51:37;;;;;;;5.35;0.60;;;17.30;99.90;;;;;;5076514;28;20306;-78
2021/09/12 00:54:07;;;;;;;7.75;0.82;;;17.30;99.90;;;;;;5058437;28;20486;-78
2021/09/12 00:56:41;;;;;;;8.20;0.95;;;17.20;99.90;;;;;;5076229;28;20028;-78
2021/09/12 00:59:11;;;;;;;3.85;0.50;;;17.10;99.90;;;;;;5077383;28;20025;-78
2021/09/12 01:01:39;;;;;;;4.80;0.60;;;17.00;99.90;;;;;;5057790;28;20548;-78
2021/09/12 01:04:05;;;;;;;2.17;0.52;;;17.00;99.90;;;;;;5057800;28;20028;-78
2021/09/12 01:06:31;;;;;;;7.10;0.65;;;17.00;99.90;;;;;;5074995;28;20028;-77
2021/09/12 01:08:59;;;;;;;4.38;1.00;;;17.00;99.90;;;;;;5074835;28;20487;-76
2021/09/12 01:11:24;;;;;;;4.77;0.77;;;16.90;99.90;;;;;;5074036;28;20489;-76
2021/09/12 01:13:50;;;;;;;5.32;0.80;;;16.90;99.90;;;;;;5073537;28;20100;-76
2021/09/12 01:16:18;;;;;;;3.45;0.38;;;16.90;99.90;;;;;;5072867;28;20039;-77
2021/09/12 01:18:44;;;;;;;3.85;1.35;;;16.80;99.90;;;;;;5073355;28;20028;-77
2021/09/12 01:21:12;;;;;;;6.05;1.48;;;16.70;99.90;;;;;;5073560;28;20040;-77
2021/09/12 01:23:39;;;;;;;5.20;0.75;;;16.60;99.90;;;;;;5073543;28;20111;-76
2021/09/12 01:26:05;;;;;;;4.35;0.65;;;16.60;99.90;;;;;;5054965;28;20115;-77
2021/09/12 01:28:31;;;;;;;5.80;1.30;;;16.50;99.90;;;;;;5072855;28;20108;-76
2021/09/12 01:30:57;;;;;;;3.90;0.73;;;16.50;99.90;;;;;;5055020;28;20123;-76
2021/09/12 01:33:22;;;;;;;4.95;0.55;;;16.50;99.90;;;;;;5073172;28;20095;-77
2021/09/12 01:35:48;;;;;;;3.85;0.65;;;16.50;99.90;;;;;;5054886;28;20056;-77
2021/09/12 01:38:14;;;;;;;4.47;1.20;;;16.50;99.90;;;;;;5073106;28;20381;-77
2021/09/12 01:40:39;;;;;;;4.35;0.80;;;16.40;99.90;;;;;;5073732;28;20085;-76
2021/09/12 01:43:05;;;;;;;6.53;0.63;;;16.40;99.90;;;;;;5074408;28;20043;-76
2021/09/12 01:45:30;;;;;;;7.68;0.80;;;16.30;99.90;;;;;;5056367;28;20020;-75
2021/09/12 01:47:59;;;;;;;4.30;0.60;;;16.30;99.90;;;;;;5073671;28;20031;-75
2021/09/12 01:50:26;;;;;;;5.07;1.42;;;16.30;99.90;;;;;;5055878;28;20020;-77
2021/09/12 01:52:51;;;;;;;6.43;1.10;;;16.30;99.90;;;;;;5055677;28;20023;-77
2021/09/12 01:55:17;;;;;;;5.00;0.65;;;16.30;99.90;;;;;;5077974;28;20032;-77
2021/09/12 01:57:42;;;;;;;6.05;0.93;;;16.30;99.90;;;;;;5077375;28;20021;-75
2021/09/12 02:00:08;;;;;;;9.02;1.20;;;16.20;99.90;;;;;;5059497;28;20027;-74
2021/09/12 02:02:34;;;;;;;4.18;1.23;;;16.30;99.90;;;;;;5059469;28;20149;-76
2021/09/12 02:05:04;;;;;;;7.40;1.90;;;16.20;99.90;;;;;;5077337;28;20056;-73
2021/09/12 02:07:30;;;;;;;5.95;1.55;;;16.20;99.90;;;;;;5077074;28;20405;-73
2021/09/12 02:09:55;;;;;;;8.32;0.93;;;16.10;99.90;;;;;;5059267;28;20027;-73
2021/09/12 02:12:21;;;;;;;4.63;0.73;;;16.10;99.90;;;;;;5077260;28;20025;-74
2021/09/12 02:14:47;;;;;;;4.35;0.75;;;16.00;99.90;;;;;;5077333;28;20393;-74
2021/09/12 02:17:12;;;;;;;7.50;0.77;;;16.00;99.90;;;;;;5058652;28;20028;-75
2021/09/12 02:19:38;;;;;;;3.72;1.58;;;16.00;99.90;;;;;;5076886;28;20021;-75
2021/09/12 02:22:04;;;;;;;11.90;1.27;;;16.00;99.90;;;;;;5076884;28;20020;-75
2021/09/12 02:24:29;;;;;;;4.03;1.00;;;16.00;99.90;;;;;;5057938;28;20027;-76
2021/09/12 02:26:55;;;;;;;5.75;1.88;;;15.90;99.90;;;;;;5076282;28;20025;-75
2021/09/12 02:29:20;;;;;;;5.20;0.95;;;15.90;99.90;;;;;;5076449;28;20028;-75
2021/09/12 02:31:46;;;;;;;7.88;1.45;;;15.90;99.90;;;;;;5076233;28;20109;-75
2021/09/12 02:34:11;;;;;;;8.20;1.60;;;15.80;99.90;;;;;;5059875;28;20035;-74
2021/09/12 02:36:37;;;;;;;5.30;1.33;;;15.70;99.90;;;;;;5058268;28;20031;-75
2021/09/12 02:39:03;;;;;;;6.03;1.75;;;15.70;99.90;;;;;;5058255;28;20033;-73
2021/09/12 02:41:29;;;;;;;10.80;1.75;;;15.70;99.90;;;;;;5076655;28;20024;-73
2021/09/12 02:43:54;;;;;;;6.47;1.08;;;15.60;99.90;;;;;;5076070;28;20380;-73
2021/09/12 02:46:20;;;;;;;9.30;1.48;;;15.50;99.90;;;;;;5076011;28;20078;-73
2021/09/12 02:48:46;;;;;;;6.95;2.25;;;15.50;99.90;;;;;;5058121;28;20440;-73
2021/09/12 02:51:11;;;;;;;7.07;1.05;;;15.50;99.90;;;;;;5076539;28;20025;-75
2021/09/12 02:53:37;;;;;;;4.65;1.30;;;15.50;99.90;;;;;;5058328;28;20086;-74
2021/09/12 02:56:03;;;;;;;7.68;1.60;;;15.50;99.90;;;;;;5058058;28;20535;-76
2021/09/12 02:58:28;;;;;;;7.03;1.30;;;15.50;99.90;;;;;;5076068;28;20041;-76
2021/09/12 03:00:57;;;;;;;12.85;2.15;;;15.40;99.90;;;;;;5076743;28;20021;-76
2021/09/12 03:03:22;;;;;;;4.43;1.50;;;15.50;99.90;;;;;;5058886;28;20029;-74
2021/09/12 03:05:48;;;;;;;7.25;1.55;;;15.50;99.90;;;;;;5058019;28;20024;-77
2021/09/12 03:08:13;;;;;;;4.30;1.38;;;15.50;99.90;;;;;;5076590;28;20028;-75
2021/09/12 03:10:39;;;;;;;6.07;1.70;;;15.50;99.90;;;;;;5076623;28;20482;-74
2021/09/12 03:13:05;;;;;;;6.88;1.65;;;15.60;99.90;;;;;;5076998;28;20020;-76
2021/09/12 03:15:30;;;;;;;6.25;1.60;;;15.50;99.90;;;;;;5076113;28;20031;-74
2021/09/12 03:17:56;;;;;;;7.80;1.88;;;15.50;99.90;;;;;;5058374;28;20424;-76
2021/09/12 03:20:22;;;;;;;6.78;1.95;;;15.50;99.90;;;;;;5076648;28;20583;-75
2021/09/12 03:22:48;;;;;;;7.30;1.52;;;15.40;99.90;;;;;;5076756;28;20017;-76
2021/09/12 03:25:13;;;;;;;10.05;3.03;;;15.40;99.90;;;;;;5076490;28;20024;-77
2021/09/12 03:27:53;;;;;;;7.78;2.15;;;15.30;99.90;;;;;;5076525;28;20027;-76
2021/09/12 03:30:20;;;;;;;5.47;2.20;;;15.30;99.90;;;;;;5076726;28;20032;-75
2021/09/12 03:32:46;;;;;;;9.30;2.20;;;15.20;99.90;;;;;;5076027;28;20365;-74
2021/09/12 03:35:12;;;;;;;8.02;2.75;;;15.10;99.90;;;;;;5091766;22;20029;-78
2021/09/12 03:37:37;;;;;;;8.13;2.75;;;15.10;99.90;;;;;;5116620;28;20040;-73
2021/09/12 03:40:03;;;;;;;9.90;2.47;;;16.20;99.90;;;;;;5116013;28;20020;-73
2021/09/12 03:42:29;;;;;;;9.05;3.47;;;15.00;99.90;;;;;;5115691;28;20020;-73
2021/09/12 03:44:55;;;;;;;8.63;2.60;;;14.90;99.90;;;;;;5114305;28;20018;-73
2021/09/12 03:47:21;;;;;;;9.07;2.85;;;14.90;99.90;;;;;;5115579;28;20361;-73
2021/09/12 03:49:46;;;;;;;14.18;3.75;;;14.80;99.90;;;;;;5115595;28;20032;-73
2021/09/12 03:52:12;;;;;;;7.47;3.03;;;14.80;99.90;;;;;;5115546;28;20492;-75
2021/09/12 03:54:38;;;;;;;10.90;3.17;;;14.80;99.90;;;;;;5115664;28;20019;-75
2021/09/12 03:57:03;;;;;;;14.15;2.78;;;14.70;99.90;;;;;;5113988;28;20068;-73
2021/09/12 03:59:29;;;;;;;8.57;2.42;;;14.70;99.90;;;;;;5115393;28;20073;-73
2021/09/12 04:01:55;;;;;;;10.40;2.45;;;14.60;99.90;;;;;;5115546;28;20055;-75
2021/09/12 04:04:20;;;;;;;9.07;3.03;;;14.50;99.90;;;;;;5115261;28;20480;-75
2021/09/12 04:06:46;;;;;;;12.23;3.20;;;14.50;99.90;;;;;;5113851;28;20564;-75
2021/09/12 04:09:11;;;;;;;12.90;3.53;;;14.50;99.90;;;;;;5115181;28;20481;-75
2021/09/12 04:11:37;;;;;;;7.63;3.08;;;14.40;99.90;;;;;;5115788;28;20024;-76
2021/09/12 04:14:02;;;;;;;12.38;3.80;;;14.40;99.90;;;;;;5113990;28;20024;-77
2021/09/12 04:16:28;;;;;;;16.10;5.10;;;14.40;99.90;;;;;;5106852;28;20031;-74
2021/09/12 04:18:55;;;;;;;10.63;4.07;;;14.40;99.90;;;;;;5127130;22;20047;-77
2021/09/12 04:21:20;;;;;;;9.18;3.03;;;14.40;99.90;;;;;;5105151;28;20114;-78
2021/09/12 04:23:46;;;;;;;12.02;3.90;;;14.50;99.90;;;;;;5102370;28;20481;-79
2021/09/12 04:26:11;;;;;;;13.57;4.07;;;14.50;99.90;;;;;;5107407;27;20041;-78
2021/09/12 04:28:37;;;;;;;12.35;3.60;;;14.50;99.90;;;;;;5139628;27;20384;-78
2021/09/12 04:31:02;;;;;;;15.48;4.05;;;14.50;99.90;;;;;;5140531;27;20019;-78
2021/09/12 04:33:28;;;;;;;8.82;3.13;;;15.80;99.90;;;;;;5121497;27;20046;-78
2021/09/12 04:35:54;;;;;;;17.85;4.80;;;14.60;99.90;;;;;;5138773;27;20027;-78
2021/09/12 04:38:19;;;;;;;12.02;3.60;;;14.70;99.90;;;;;;5120424;27;20059;-78
2021/09/12 04:40:45;;;;;;;9.43;4.07;;;14.70;99.90;;;;;;5140570;27;20019;-78
2021/09/12 04:43:11;;;;;;;12.85;3.22;;;14.70;99.90;;;;;;5139081;27;20464;-76
2021/09/12 04:45:37;;;;;;;15.70;4.97;;;14.80;99.90;;;;;;5134986;27;20019;-74
2021/09/12 04:48:02;;;;;;;11.57;3.67;;;14.80;99.90;;;;;;5129176;22;20160;-75
2021/09/12 04:50:28;;;;;;;13.68;3.83;;;14.90;99.90;;;;;;5089025;28;20081;-76
2021/09/12 04:52:54;;;;;;;9.70;3.72;;;14.80;99.90;;;;;;5114890;28;20117;-75
2021/09/12 04:55:19;;;;;;;9.82;4.43;;;15.50;99.90;;;;;;5082745;28;20370;-73
2021/09/12 04:57:45;;;;;;;12.65;4.82;;;14.90;99.90;;;;;;5094895;28;20028;-75
2021/09/12 05:00:11;;;;;;;10.27;3.53;;;14.90;99.90;;;;;;5076780;28;20020;-76
2021/09/12 05:02:36;;;;;;;17.08;4.35;;;15.00;99.90;;;;;;5076254;28;20024;-75
2021/09/12 05:05:02;;;;;;;17.67;4.25;;;15.00;99.90;;;;;;5083621;28;20388;-74
2021/09/12 05:07:28;;;;;;;15.65;4.70;;;15.10;99.90;;;;;;5073774;28;20955;-75
2021/09/12 05:09:53;;;;;;;15.95;4.93;;;15.10;99.90;;;;;;5090765;28;20016;-75
2021/09/12 05:12:19;;;;;;;14.23;4.30;;;15.10;99.90;;;;;;5093904;28;20481;-74
2021/09/12 05:14:44;;;;;;;17.92;5.63;;;15.20;99.90;;;;;;5096828;22;20509;-75
2021/09/12 05:17:10;;;;;;;17.05;5.25;;;15.20;99.90;;;;;;5071447;22;20055;-74
2021/09/12 05:19:36;;;;;;;17.38;5.80;;;15.20;99.90;;;;;;5075824;22;20049;-75
2021/09/12 05:22:02;;;;;;;13.20;4.85;;;15.20;99.90;;;;;;5053971;28;20485;-74
2021/09/12 05:24:27;;;;;;;13.30;4.63;;;15.20;99.90;;;;;;5053627;28;20021;-74
2021/09/12 05:26:53;;;;;;;19.10;5.00;;;15.20;99.90;;;;;;5052323;28;20032;-74
2021/09/12 05:29:18;;;;;;;12.93;4.35;;;15.30;99.90;;;;;;5052948;28;20029;-74
2021/09/12 05:31:47;;;;;;;15.10;5.53;;;15.30;99.90;;;;;;5054852;28;20035;-76
2021/09/12 05:34:13;;;;;;;17.80;5.55;;;15.40;99.90;;;;;;5059512;28;20052;-79
2021/09/12 05:36:39;;;;;;;14.20;5.05;;;15.40;99.90;;;;;;5059872;28;20021;-79
2021/09/12 05:39:04;;;;;;;14.32;4.85;;;15.40;99.90;;;;;;5058575;28;20039;-78
2021/09/12 05:41:30;;;;;;;14.02;4.90;;;15.40;99.90;;;;;;5058715;28;20108;-77
2021/09/12 05:43:55;;;;;;;16.02;5.00;;;15.40;99.90;;;;;;5060258;28;20063;-78
2021/09/12 05:46:21;;;;;;;14.77;5.30;;;15.40;99.90;;;;;;5057972;28;20070;-76
2021/09/12 05:48:47;;;;;;;13.50;5.32;;;15.40;99.90;;;;;;5058409;28;20040;-77
2021/09/12 05:51:12;;;;;;;13.43;5.20;;;15.50;99.90;;;;;;5056279;28;20029;-77
2021/09/12 05:53:38;;;;;;;20.10;6.03;;;15.50;99.90;;;;;;5059173;28;20118;-77
2021/09/12 05:56:03;;;;;;;17.13;5.32;;;15.60;99.90;;;;;;5057873;28;20474;-77
2021/09/12 05:58:29;;;;;;;14.57;5.65;;;15.60;99.90;;;;;;5057805;28;20033;-76
2021/09/12 06:00:54;;;;;;;15.50;4.82;;;15.60;99.90;;;;;;5057934;28;20056;-77
2021/09/12 06:03:20;;;;;;;20.35;6.45;;;15.60;99.90;;;;;;5055658;28;20029;-80
2021/09/12 06:05:46;;;;;;;17.83;4.95;;;15.70;99.90;;;;;;5037175;28;20164;-80
2021/09/12 06:08:11;;;;;;;16.30;6.00;;;15.70;99.90;;;;;;5035124;28;20537;-80
2021/09/12 06:10:37;;;;;;;15.70;5.45;;;15.70;99.90;;;;;;5035174;28;20475;-82
2021/09/12 06:13:02;;;;;;;16.92;5.50;;;15.70;99.90;;;;;;5038215;28;20131;-78
2021/09/12 06:15:28;;;;;;;15.68;5.22;;;17.20;99.90;;;;;;5054330;28;20104;-78
2021/09/12 06:17:53;;;;;;;14.50;4.65;;;15.70;99.90;;;;;;5052371;28;20474;-78
2021/09/12 06:20:19;;;;;;;13.70;5.07;;;15.80;99.90;;;;;;5052386;28;20521;-78
2021/09/12 06:22:47;;;;;;;13.45;5.30;;;15.80;99.90;;;;;;5052345;28;20033;-78
2021/09/12 06:25:13;;;;;;;12.23;4.75;;;15.80;99.90;;;;;;5054472;28;20018;-78
2021/09/12 06:27:40;;;;;;;20.70;6.88;;;17.70;99.90;;;;;;5052395;28;20029;-78
2021/09/12 06:30:07;;;;;;;15.35;5.55;;;17.40;99.90;;;;;;5052293;28;20028;-77
2021/09/12 06:32:33;;;;;;;14.77;4.57;;;15.90;99.90;;;;;;5052613;28;20025;-76
2021/09/12 06:34:59;;;;;;;15.80;4.85;;;16.10;99.90;;;;;;5051485;28;20028;-76
2021/09/12 06:37:24;;;;;;;22.58;6.40;;;16.30;99.90;;;;;;5051563;28;20489;-76
2021/09/12 06:39:50;;;;;;;20.30;5.32;;;16.10;99.90;;;;;;5054509;28;20104;-77
2021/09/12 06:42:15;;;;;;;15.05;5.20;;;16.10;99.90;;;;;;5054937;28;20021;-75
2021/09/12 06:44:41;;;;;;;15.27;5.32;;;16.10;99.90;;;;;;5055380;28;20111;-75
2021/09/12 06:47:07;;;;;;;15.90;5.32;;;16.10;99.90;;;;;;5055244;28;20029;-75
2021/09/12 06:49:32;;;;;;;11.60;4.30;;;16.10;99.90;;;;;;5056933;28;20025;-76
2021/09/12 06:52:00;;;;;;;16.60;5.00;;;16.10;99.90;;;;;;5056039;28;20443;-77
2021/09/12 06:54:25;;;;;;;13.02;4.90;;;16.20;99.90;;;;;;5055866;28;20055;-77
2021/09/12 06:56:51;;;;;;;15.02;5.28;;;16.20;99.90;;;;;;5056072;28;20061;-77
2021/09/12 06:59:16;;;;;;;15.25;4.63;;;16.30;99.90;;;;;;5054898;28;20036;-77
2021/09/12 07:01:42;;;;;;;14.48;5.53;;;16.20;99.90;;;;;;5056339;28;20021;-77
2021/09/12 07:04:08;;;;;;;15.15;5.72;;;16.20;99.90;;;;;;5056222;28;20025;-77
2021/09/12 07:06:33;;;;;;;12.68;4.60;;;16.30;99.90;;;;;;5054704;28;20025;-77
2021/09/12 07:08:59;;;;;;;13.25;5.13;;;16.30;99.90;;;;;;5055756;28;20497;-79
2021/09/12 07:11:24;;;;;;;17.40;5.60;;;16.30;99.90;;;;;;5055929;28;20559;-77
2021/09/12 07:13:50;;;;;;;11.52;5.40;;;16.30;99.90;;;;;;5056290;28;20032;-77
2021/09/12 07:16:18;;;;;;;15.00;5.10;;;16.30;99.90;;;;;;5054531;28;20056;-77
2021/09/12 07:18:43;;;;;;;11.57;5.15;;;16.40;99.90;;;;;;5054650;28;20107;-77
2021/09/12 07:21:09;;;;;;;11.52;5.00;;;16.50;99.90;;;;;;5055807;28;20530;-77
2021/09/12 07:23:34;;;;;;;15.48;5.55;;;16.50;99.90;;;;;;5056085;28;20111;-77
2021/09/12 07:26:00;;;;;;;14.43;4.75;;;16.60;99.90;;;;;;5054489;28;20013;-77
2021/09/12 07:28:25;;;;;;;22.75;6.00;;;16.60;99.90;;;;;;5055762;28;20091;-75
2021/09/12 07:30:51;;;;;;;13.27;5.68;;;16.70;99.90;;;;;;5055929;28;20060;-76
2021/09/12 07:33:17;;;;;;;16.15;5.43;;;16.70;99.90;;;;;;5055974;28;20033;-76
2021/09/12 07:35:42;;;;;;;14.65;6.68;;;16.70;99.90;;;;;;5055834;28;20474;-76
2021/09/12 07:38:08;;;;;;;13.32;5.00;;;16.70;99.90;;;;;;5055885;28;20572;-77
2021/09/12 07:40:33;;;;;;;18.25;5.40;;;16.70;99.90;;;;;;5054644;28;20074;-74
2021/09/12 07:42:59;;;;;;;13.45;5.10;;;16.70;99.90;;;;;;5054590;28;20028;-76
2021/09/12 07:45:24;;;;;;;13.75;5.68;;;16.60;99.90;;;;;;5055280;28;20028;-77
2021/09/12 07:47:50;;;;;;;23.13;6.35;;;16.60;99.90;;;;;;5055056;28;20044;-77
2021/09/12 07:50:16;;;;;;;15.30;6.18;;;16.60;99.90;;;;;;5054664;28;20510;-77
2021/09/12 07:52:42;;;;;;;16.55;7.32;;;16.50;99.90;;;;;;5052853;28;20025;-77
2021/09/12 07:55:13;;;;;;;13.27;6.05;;;16.70;99.90;;;;;;5054115;28;20021;-77
2021/09/12 07:57:40;;;;;;;16.05;6.00;;;16.80;99.90;;;;;;5053567;28;20071;-77
2021/09/12 08:00:07;;;;;;;16.35;6.38;;;16.80;99.90;;;;;;5053311;28;20048;-77
2021/09/12 08:02:32;;;;;;;16.27;5.30;;;16.80;99.90;;;;;;5053167;28;20025;-77
2021/09/12 08:04:58;;;;;;;14.45;5.78;;;16.90;99.90;;;;;;5054736;28;20382;-77
2021/09/12 08:07:24;;;;;;;15.52;6.47;;;16.90;99.90;;;;;;5054693;28;20032;-77
2021/09/12 08:09:49;;;;;;;14.07;5.38;;;17.00;99.90;;;;;;5055141;28;20017;-77
2021/09/12 08:12:15;;;;;;;17.05;5.90;;;17.10;99.90;;;;;;5054740;28;20025;-77
2021/09/12 08:14:41;;;;;;;13.00;5.15;;;17.20;99.90;;;;;;5054623;28;20025;-74
2021/09/12 08:17:06;;;;;;;13.23;4.93;;;17.20;99.90;;;;;;5059171;28;20020;-78
2021/09/12 08:19:32;;;;;;;13.15;5.20;;;17.30;99.90;;;;;;5057938;28;20037;-78
2021/09/12 08:21:58;;;;;;;21.30;6.15;;;17.50;99.90;;;;;;5058769;28;20017;-79
2021/09/12 08:24:23;;;;;;;14.90;5.55;;;17.50;99.90;;;;;;5058062;28;20359;-79
2021/09/12 08:26:49;;;;;;;19.13;6.30;;;17.70;99.90;;;;;;5059659;28;20082;-78
2021/09/12 08:29:15;;;;;;;11.18;4.22;;;17.70;99.90;;;;;;5058129;28;20044;-78
2021/09/12 08:31:41;;;;;;;13.77;5.15;;;17.80;99.90;;;;;;5058336;28;20088;-78
2021/09/12 08:34:06;;;;;;;15.80;5.53;;;17.90;99.90;;;;;;5059747;28;20367;-78
2021/09/12 08:36:32;;;;;;;15.63;6.10;;;18.00;99.90;;;;;;5059801;28;20029;-78
2021/09/12 08:39:01;;;;;;;15.18;5.45;;;18.10;99.90;;;;;;5060066;28;20183;-78
2021/09/12 08:41:30;;;;;;;15.07;6.07;;;18.30;99.90;;;;;;5060427;28;20108;-78
2021/09/12 08:43:56;;;;;;;16.90;5.38;;;18.40;99.90;;;;;;5058897;28;20028;-79
2021/09/12 08:46:22;;;;;;;13.63;5.43;;;18.50;99.90;;;;;;5059662;28;20037;-78
2021/09/12 08:48:52;;;;;;;19.45;6.25;;;18.70;99.90;;;;;;5059207;28;20033;-78
2021/09/12 08:51:18;;;;;;;18.35;6.20;;;18.80;99.90;;;;;;5058261;28;20036;-75
2021/09/12 08:53:45;;;;;;;30.50;7.68;;;19.00;99.90;;;;;;5058555;28;20025;-74
2021/09/12 08:56:10;;;;;;;18.98;6.68;;;19.00;99.90;;;;;;5058491;28;20096;-75
2021/09/12 08:58:36;;;;;;;21.55;7.10;;;19.30;99.90;;;;;;5057613;28;20041;-75
2021/09/12 09:01:02;;;;;;;23.83;7.80;;;19.10;99.90;;;;;;5057947;28;20082;-75
2021/09/12 09:03:39;;;;;;;22.33;7.90;;;19.20;99.90;;;;;;5058979;28;20036;-75
2021/09/12 09:06:17;;;;;;;22.58;8.05;;;19.20;99.90;;;;;;5057101;28;20019;-75
2021/09/12 09:08:55;;;;;;;20.97;8.90;;;19.10;99.90;;;;;;5057485;28;20393;-76
2021/09/12 09:11:47;;;;;;;23.95;8.48;;;19.20;99.90;;;;;;5057954;28;20466;-75
2021/09/12 09:14:21;;;;;;;20.45;8.43;;;19.50;99.90;;;;;;5055354;28;20439;-76
2021/09/12 09:16:57;;;;;;;24.13;8.23;;;19.60;99.90;;;;;;5057535;28;20432;-75
2021/09/12 09:19:23;;;;;;;21.25;9.27;;;19.60;99.90;;;;;;5056656;28;20029;-75
2021/09/12 09:21:52;;;;;;;27.25;9.18;;;19.50;99.90;;;;;;5057902;28;20060;-75
2021/09/12 09:24:25;;;;;;;25.08;9.40;;;19.50;99.90;;;;;;5058896;28;20028;-75
2021/09/12 09:26:56;;;;;;;18.25;8.73;;;19.50;99.90;;;;;;5057794;28;20425;-75
2021/09/12 09:29:37;;;;;;;21.58;9.55;;;19.40;99.90;;;;;;5058269;28;20029;-75
2021/09/12 09:32:14;;;;;;;28.58;10.15;;;19.50;99.90;;;;;;5055705;28;20033;-76
2021/09/12 09:34:42;;;;;;;28.40;10.63;;;19.60;99.90;;;;;;5037819;28;20398;-75
2021/09/12 09:37:13;;;;;;;28.42;10.18;;;19.70;99.90;;;;;;5052037;28;20029;-76
2021/09/12 09:39:46;;;;;;;25.42;10.90;;;19.80;99.90;;;;;;5056594;28;20033;-75
2021/09/12 09:42:33;;;;;;;24.25;9.13;;;19.80;99.90;;;;;;5056396;28;20037;-75
2021/09/12 09:45:03;;;;;;;25.15;10.20;;;19.90;99.90;;;;;;5057582;28;20021;-76
2021/09/12 09:47:32;;;;;;;28.75;10.68;;;19.90;99.90;;;;;;5058491;28;20036;-75
2021/09/12 09:50:12;;;;;;;24.38;10.10;;;19.90;99.90;;;;;;5058396;28;20024;-75
2021/09/12 09:52:46;;;;;;;25.08;11.00;;;19.70;99.90;;;;;;5049606;28;20040;-74
2021/09/12 09:55:14;;;;;;;32.60;11.20;;;19.60;99.90;;;;;;5056261;28;20067;-75
2021/09/12 09:57:48;;;;;;;29.23;11.05;;;19.50;99.90;;;;;;5056462;28;20032;-75
2021/09/12 10:00:14;;;;;;;25.05;10.18;;;19.40;99.90;;;;;;5057095;28;20033;-74
2021/09/12 10:02:43;;;;;;;27.67;10.43;;;19.40;99.90;;;;;;5057224;28;20021;-75
2021/09/12 10:05:13;;;;;;;28.75;11.10;;;19.40;99.90;;;;;;5057438;28;20028;-74
2021/09/12 10:07:43;;;;;;;32.60;11.43;;;19.50;99.90;;;;;;5057675;28;20563;-74
2021/09/12 10:10:11;;;;;;;27.85;11.25;;;19.60;99.90;;;;;;5057250;28;20025;-76
2021/09/12 10:12:59;;;;;;;;;;;19.60;99.90;;;;;;5057205;28;20029;-75
2021/09/12 10:15:32;;;;;;;24.95;9.52;;;19.50;99.90;;;;;;5059350;28;19939;-75
2021/09/12 10:17:59;;;;;;;29.98;10.30;;;19.50;99.90;;;;;;5061226;28;20064;-75
2021/09/12 10:20:27;;;;;;;26.00;9.40;;;19.50;99.90;;;;;;5061551;28;20047;-75
2021/09/12 10:22:57;;;;;;;34.08;9.68;;;19.60;99.90;;;;;;5060865;28;20025;-75
2021/09/12 10:25:24;;;;;;;23.80;9.98;;;19.70;99.90;;;;;;5061559;28;20032;-75
2021/09/12 10:28:06;;;;;;;23.17;9.35;;;19.90;99.90;;;;;;5060018;28;20397;-74
2021/09/12 10:30:42;;;;;;;27.98;10.35;;;20.10;99.90;;;;;;5059952;28;20029;-76
2021/09/12 10:33:08;;;;;;;26.65;9.98;;;20.40;99.90;;;;;;5058686;28;20024;-76
2021/09/12 10:35:45;;;;;;;22.25;9.77;;;21.40;99.90;;;;;;5060992;28;20429;-75
2021/09/12 10:38:12;;;;;;;23.60;8.90;;;20.60;99.90;;;;;;5060929;28;20029;-76
2021/09/12 10:40:47;;;;;;;25.85;11.73;;;20.80;99.90;;;;;;5059368;28;20025;-76
2021/09/12 10:43:24;;;;;;;23.00;8.93;;;20.90;99.90;;;;;;5060455;28;20029;-76
2021/09/12 10:46:10;;;;;;;20.85;9.80;;;21.10;99.90;;;;;;5061598;28;20055;-76
2021/09/12 10:48:59;;;;;;;22.52;8.48;;;21.20;99.90;;;;;;5057470;28;20085;-76
2021/09/12 10:51:25;;;;;;;22.10;8.98;;;21.40;99.90;;;;;;5053532;28;20044;-75
2021/09/12 10:53:59;;;;;;;23.63;9.85;;;21.80;99.90;;;;;;5060663;28;20543;-75
2021/09/12 10:56:25;;;;;;;32.35;9.52;;;22.20;99.90;;;;;;5060246;28;20029;-75
2021/09/12 10:58:57;;;;;;;21.05;8.68;;;22.20;99.90;;;;;;5059072;28;20048;-75
2021/09/12 11:01:28;;;;;;;23.45;9.68;;;22.00;99.90;;;;;;5059994;28;20044;-75
2021/09/12 11:03:57;;;;;;;21.42;10.25;;;22.00;99.90;;;;;;5060129;28;20158;-75
2021/09/12 11:06:23;;;;;;;19.88;8.43;;;22.10;99.90;;;;;;5059380;28;20085;-75
2021/09/12 11:08:48;;;;;;;25.25;9.48;;;22.00;99.90;;;;;;5059988;28;20024;-75
2021/09/12 11:11:14;;;;;;;30.58;10.80;;;22.00;99.90;;;;;;5059780;28;20032;-75
2021/09/12 11:13:40;;;;;;;21.98;10.55;;;21.80;99.90;;;;;;5059658;28;20079;-75
2021/09/12 11:16:08;;;;;;;19.48;8.48;;;21.50;99.90;;;;;;5060241;28;20036;-76
2021/09/12 11:18:47;;;;;;;21.05;9.18;;;21.20;99.90;;;;;;5060154;28;20041;-77
2021/09/12 11:21:41;;;;;;;20.30;9.38;;;21.20;99.90;;;;;;5056084;28;20033;-77
2021/09/12 11:24:14;;;;;;;22.60;9.60;;;21.10;99.90;;;;;;5060053;28;20493;-77
2021/09/12 11:26:53;;;;;;;20.25;10.23;;;21.10;99.90;;;;;;5042583;28;20044;-77
2021/09/12 11:29:28;;;;;;;18.75;8.63;;;21.00;99.90;;;;;;5044479;28;20025;-76
2021/09/12 11:32:00;;;;;;;18.33;8.65;;;21.00;99.90;;;;;;5060101;28;20029;-76
2021/09/12 11:34:26;;;;;;;20.08;9.68;;;21.00;99.90;;;;;;5057911;28;20056;-76
2021/09/12 11:36:54;;;;;;;17.85;8.80;;;20.90;99.90;;;;;;5058321;28;20029;-76
2021/09/12 11:39:31;;;;;;;18.15;9.05;;;20.80;99.90;;;;;;5052097;28;20082;-75
2021/09/12 11:42:00;;;;;;;18.02;8.85;;;20.80;99.90;;;;;;5038481;28;20025;-76
2021/09/12 11:44:44;;;;;;;25.33;10.30;;;20.70;99.90;;;;;;5039578;28;20024;-76
2021/09/12 11:47:15;;;;;;;18.23;9.13;;;20.60;99.90;;;;;;5038206;28;20131;-76
2021/09/12 11:49:42;;;;;;;19.65;10.20;;;20.60;99.90;;;;;;5047266;28;20029;-76
2021/09/12 11:52:08;;;;;;;18.40;9.20;;;20.70;99.90;;;;;;5041158;28;20061;-76
2021/09/12 11:54:37;;;;;;;21.30;9.93;;;20.70;99.90;;;;;;5046027;28;20454;-75
2021/09/12 11:57:14;;;;;;;21.25;10.68;;;20.80;99.90;;;;;;5059076;28;20095;-75
2021/09/12 11:59:48;;;;;;;23.33;10.82;;;20.90;99.90;;;;;;5059184;28;20108;-76
2021/09/12 12:02:19;;;;;;;23.85;10.75;;;20.90;99.90;;;;;;5059216;28;20449;-75
2021/09/12 12:04:45;;;;;;;29.13;12.80;;;20.90;99.90;;;;;;5057989;28;20470;-76
2021/09/12 12:07:11;;;;;;;28.80;14.50;;;21.10;99.90;;;;;;5059165;28;20470;-76
2021/09/12 12:09:43;;;;;;;23.55;10.88;;;21.40;99.90;;;;;;5058422;28;20052;-76
2021/09/12 12:12:38;;;;;;;23.15;11.50;;;21.60;99.90;;;;;;5059953;28;20538;-76
2021/09/12 12:15:06;;;;;;;20.00;10.57;;;21.50;99.90;;;;;;5058499;28;20086;-75
2021/09/12 12:17:31;;;;;;;26.50;13.02;;;21.30;99.90;;;;;;5058570;28;20032;-76
2021/09/12 12:19:57;;;;;;;19.70;9.30;;;21.20;99.90;;;;;;5058079;28;20025;-76
2021/09/12 12:22:37;;;;;;;23.23;9.93;;;21.10;99.90;;;;;;5059020;28;20032;-75
2021/09/12 12:25:03;;;;;;;22.08;9.35;;;20.90;99.90;;;;;;5059169;28;20021;-76
2021/09/12 12:27:29;;;;;;;22.70;9.95;;;20.70;99.90;;;;;;5058751;28;20553;-76
2021/09/12 12:30:01;;;;;;;16.73;9.20;;;20.60;99.90;;;;;;5058681;28;20049;-76
2021/09/12 12:32:28;;;;;;;19.25;9.15;;;20.60;99.90;;;;;;5058124;28;20017;-75
2021/09/12 12:34:58;;;;;;;18.20;8.80;;;20.70;99.90;;;;;;5057064;28;20103;-76
2021/09/12 12:37:26;;;;;;;11.93;6.05;;;20.90;99.90;;;;;;5057937;28;20021;-75
2021/09/12 12:40:18;;;;;;;9.48;3.88;;;21.20;99.90;;;;;;5056578;28;20033;-75